Time;durP1;ratioP1;P1;durP2;ratioP2;P2;SDS_P1;SDS_P2;PMS_P1;PMS_P2;Temp;Humidity;BMP_temperature;BMP_pressure;BME280_temperature;BME280_humidity;BME280_pressure;Samples;Min_cycle;Max_cycle;Signal;HPM_P1;HPM_P2
2022/07/08 00:01:52;;;;;;;4.05;3.03;;;;;;;39.82;20.11;100596.28;5033204;28;20030;-71
2022/07/08 00:04:18;;;;;;;4.10;3.30;;;;;;;39.82;19.72;100593.31;5033123;28;20017;-72
2022/07/08 00:06:45;;;;;;;4.50;3.63;;;;;;;39.77;20.17;100596.81;5015413;28;20025;-73
2022/07/08 00:09:16;;;;;;;3.60;3.00;;;;;;;39.82;19.86;100598.53;5031924;28;20029;-73
2022/07/08 00:11:42;;;;;;;4.43;3.28;;;;;;;39.97;19.89;100598.41;5032750;28;20039;-73
2022/07/08 00:14:08;;;;;;;4.18;3.78;;;;;;;40.02;19.84;100596.34;5031999;28;20018;-74
2022/07/08 00:16:37;;;;;;;3.13;2.83;;;;;;;40.03;19.60;100598.66;5031786;28;20440;-73
2022/07/08 00:19:02;;;;;;;4.13;3.30;;;;;;;40.11;19.59;100598.97;5031709;28;20028;-73
2022/07/08 00:21:28;;;;;;;4.10;3.60;;;;;;;39.97;19.87;100603.63;5031726;28;20025;-74
2022/07/08 00:23:53;;;;;;;7.20;3.70;;;;;;;39.93;19.73;100606.44;5032852;28;20534;-74
2022/07/08 00:26:18;;;;;;;4.22;3.70;;;;;;;39.82;19.67;100601.53;5033222;28;20029;-73
2022/07/08 00:28:44;;;;;;;3.97;3.58;;;;;;;39.90;20.08;100601.84;5048284;28;20052;-74
2022/07/08 00:31:09;;;;;;;4.90;3.95;;;;;;;39.86;19.61;100602.44;5031628;28;20029;-74
2022/07/08 00:33:35;;;;;;;3.78;3.38;;;;;;;39.92;19.67;100605.66;5032834;28;20554;-74
2022/07/08 00:36:00;;;;;;;3.78;3.35;;;;;;;39.93;20.06;100597.47;5031524;28;20196;-74
2022/07/08 00:38:27;;;;;;;4.43;3.80;;;;;;;40.00;19.62;100606.00;5031163;28;20039;-74
2022/07/08 00:40:52;;;;;;;4.35;3.85;;;;;;;39.84;20.03;100610.53;5046587;28;20030;-75
2022/07/08 00:43:47;;;;;;;4.18;3.40;;;;;;;39.73;19.94;100588.41;5030589;28;20033;-75
2022/07/08 00:46:15;;;;;;;4.90;4.13;;;;;;;39.55;20.30;100596.63;5024747;28;20407;-75
2022/07/08 00:48:42;;;;;;;5.07;4.57;;;;;;;39.62;20.07;100611.09;5029527;28;20021;-74
2022/07/08 00:51:10;;;;;;;7.90;4.53;;;;;;;39.64;19.99;100610.41;5029685;28;20045;-75
2022/07/08 00:53:38;;;;;;;4.90;3.90;;;;;;;39.64;20.29;100616.38;5029579;28;20096;-75
2022/07/08 00:56:03;;;;;;;4.13;3.78;;;;;;;39.65;19.93;100612.72;5029567;28;20052;-73
2022/07/08 00:58:30;;;;;;;5.55;4.70;;;;;;;39.43;20.64;100608.00;5032384;28;20136;-75
2022/07/08 01:00:55;;;;;;;4.90;4.05;;;;;;;39.54;20.59;100613.75;5029838;28;20402;-74
2022/07/08 01:03:21;;;;;;;4.78;4.18;;;;;;;39.78;20.23;100611.03;5045763;28;20017;-75
2022/07/08 01:05:47;;;;;;;6.10;5.03;;;;;;;39.69;20.72;100618.88;5030280;28;20079;-74
2022/07/08 01:08:12;;;;;;;5.18;4.70;;;;;;;39.75;20.70;100620.56;5063227;28;20021;-74
2022/07/08 01:10:38;;;;;;;6.28;5.65;;;;;;;39.75;20.64;100618.38;5034068;28;20025;-75
2022/07/08 01:13:05;;;;;;;6.03;5.00;;;;;;;39.93;20.26;100618.38;5033058;28;20029;-74
2022/07/08 01:15:31;;;;;;;6.32;5.13;;;;;;;39.95;20.22;100604.31;5016933;28;20488;-74
2022/07/08 01:17:56;;;;;;;7.78;5.28;;;;;;;40.02;20.33;100614.28;5051454;28;20096;-74
2022/07/08 01:20:21;;;;;;;6.68;5.07;;;;;;;39.94;20.25;100619.91;5018284;28;20025;-74
2022/07/08 01:22:47;;;;;;;8.15;5.65;;;;;;;39.81;20.44;100621.63;5034534;28;20108;-74
2022/07/08 01:25:12;;;;;;;7.25;5.82;;;;;;;39.51;21.03;100614.34;5051216;28;20026;-74
2022/07/08 01:27:38;;;;;;;8.05;5.95;;;;;;;39.66;21.08;100625.44;5051010;28;20063;-74
2022/07/08 01:30:05;;;;;;;6.50;5.57;;;;;;;39.66;20.86;100631.41;5034687;28;20025;-74
2022/07/08 01:32:36;;;;;;;7.80;5.65;;;;;;;39.83;20.95;100635.84;5051149;28;20021;-74
2022/07/08 01:35:03;;;;;;;6.60;5.90;;;;;;;39.71;21.01;100618.97;5035910;28;20017;-74
2022/07/08 01:37:28;;;;;;;6.65;5.35;;;;;;;39.64;21.19;100631.31;5034379;28;20029;-74
2022/07/08 01:39:53;;;;;;;7.07;5.38;;;;;;;39.54;21.15;100618.94;5035557;28;20029;-74
2022/07/08 01:42:19;;;;;;;8.00;5.75;;;;;;;39.53;21.33;100629.31;5050969;28;20022;-74
2022/07/08 01:44:44;;;;;;;5.93;5.22;;;;;;;39.55;21.18;100633.19;5067146;28;20042;-75
2022/07/08 01:47:10;;;;;;;6.55;4.97;;;;;;;39.68;20.80;100635.22;5034204;28;20053;-73
2022/07/08 01:49:35;;;;;;;6.22;5.55;;;;;;;39.65;21.13;100630.63;5034149;28;20036;-74
2022/07/08 01:52:01;;;;;;;5.63;4.90;;;;;;;39.47;21.20;100632.06;5034165;28;20118;-74
2022/07/08 01:54:26;;;;;;;6.03;5.43;;;;;;;39.58;21.23;100637.00;5050705;28;20064;-75
2022/07/08 01:57:13;;;;;;;7.20;6.32;;;;;;;39.43;21.07;100629.66;5033949;28;20018;-76
2022/07/08 01:59:37;;;;;;;6.13;5.53;;;;;;;39.30;21.52;100655.19;5035075;28;20033;-75
2022/07/08 02:02:04;;;;;;;6.95;5.70;;;;;;;39.25;21.85;100658.66;5035289;28;20025;-74
2022/07/08 02:04:29;;;;;;;8.82;5.72;;;;;;;39.36;21.57;100648.75;5017050;28;20124;-73
2022/07/08 02:06:55;;;;;;;8.63;6.47;;;;;;;39.41;21.99;100644.50;5017264;28;20112;-75
2022/07/08 02:09:20;;;;;;;6.95;5.72;;;;;;;39.52;21.38;100639.75;5050404;28;20390;-73
2022/07/08 02:14:30;;;;;;;7.38;5.57;;;;;;;39.62;21.67;100652.13;5035301;28;20033;-74
2022/07/08 02:16:55;;;;;;;7.32;5.95;;;;;;;39.53;21.52;100644.25;5033653;28;20026;-74
2022/07/08 02:19:20;;;;;;;7.25;6.05;;;;;;;39.52;21.59;100660.63;5034994;28;20036;-75
2022/07/08 02:21:46;;;;;;;8.73;6.05;;;;;;;39.44;21.87;100661.03;5033568;28;20116;-74
2022/07/08 02:24:11;;;;;;;8.48;5.97;;;;;;;39.49;21.94;100676.88;5050150;28;20021;-74
2022/07/08 02:26:37;;;;;;;6.93;6.10;;;;;;;39.50;22.01;100670.25;5033570;28;20048;-74
2022/07/08 02:29:02;;;;;;;8.30;6.70;;;;;;;39.44;21.76;100669.97;5033380;28;20025;-74
2022/07/08 02:31:27;;;;;;;6.80;6.10;;;;;;;39.54;21.70;100678.59;5033513;28;20112;-75
2022/07/08 02:33:53;;;;;;;9.40;6.65;;;;;;;39.56;21.78;100663.78;5034750;28;20023;-74
2022/07/08 02:36:18;;;;;;;7.65;5.97;;;;;;;39.67;21.88;100677.69;5034791;28;20393;-75
2022/07/08 02:38:44;;;;;;;8.02;6.45;;;;;;;39.47;22.13;100667.88;5050035;28;20080;-74
2022/07/08 02:41:09;;;;;;;8.07;7.00;;;;;;;39.48;21.50;100666.41;5034682;28;20436;-76
2022/07/08 02:43:34;;;;;;;7.97;6.22;;;;;;;39.68;21.02;100680.00;5033174;28;20458;-75
2022/07/08 02:46:00;;;;;;;9.15;6.57;;;;;;;39.79;21.66;100681.22;5034017;28;20048;-75
2022/07/08 02:48:25;;;;;;;7.57;6.55;;;;;;;39.80;21.63;100670.06;5032968;28;20108;-74
2022/07/08 02:50:51;;;;;;;7.45;6.35;;;;;;;39.94;21.53;100677.41;5033025;28;20026;-74
2022/07/08 02:53:16;;;;;;;7.68;6.55;;;;;;;39.85;21.59;100678.50;5032899;28;20360;-75
2022/07/08 02:55:41;;;;;;;9.38;6.63;;;;;;;39.82;21.91;100682.09;5049641;28;20048;-74
2022/07/08 02:58:07;;;;;;;7.25;5.90;;;;;;;39.95;22.06;100690.88;5034151;28;20103;-74
2022/07/08 03:00:33;;;;;;;7.57;5.85;;;;;;;40.00;21.53;100695.59;5034278;28;20052;-74
2022/07/08 03:02:58;;;;;;;8.40;6.68;;;;;;;40.05;21.28;100685.34;5032757;28;20056;-74
2022/07/08 03:05:24;;;;;;;6.47;5.78;;;;;;;40.02;21.54;100673.97;5049263;28;20060;-75
2022/07/08 03:07:49;;;;;;;10.93;6.07;;;;;;;40.08;21.80;100678.00;5049255;28;20021;-75
2022/07/08 03:10:15;;;;;;;6.28;5.53;;;;;;;40.19;21.94;100697.13;5032765;28;20053;-75
2022/07/08 03:12:40;;;;;;;8.77;6.20;;;;;;;40.25;21.97;100697.41;5033928;28;20025;-75
2022/07/08 03:15:06;;;;;;;6.35;5.40;;;;;;;40.24;21.92;100689.88;5032688;28;20013;-73
2022/07/08 03:17:31;;;;;;;7.20;5.90;;;;;;;40.40;21.61;100705.50;5032564;28;20025;-73
2022/07/08 03:19:57;;;;;;;6.22;5.57;;;;;;;40.49;21.56;100697.63;5049229;28;20151;-74
2022/07/08 03:22:22;;;;;;;7.57;6.07;;;;;;;40.38;21.71;100710.59;5049112;28;20086;-74
2022/07/08 03:24:49;;;;;;;7.68;6.15;;;;;;;40.31;21.73;100706.59;5032263;28;20398;-74
2022/07/08 03:27:14;;;;;;;6.82;6.13;;;;;;;40.34;21.81;100708.22;5032391;28;20478;-73
2022/07/08 03:29:39;;;;;;;7.70;6.13;;;;;;;40.33;21.58;100703.69;5049014;28;20108;-74
2022/07/08 03:32:05;;;;;;;7.43;5.97;;;;;;;40.25;21.93;100720.53;5031950;28;20112;-74
2022/07/08 03:34:31;;;;;;;7.45;6.78;;;;;;;40.22;22.14;100721.88;5032501;28;20104;-74
2022/07/08 03:36:56;;;;;;;7.45;6.15;;;;;;;40.22;21.75;100704.72;5032349;28;20067;-74
2022/07/08 03:39:21;;;;;;;7.20;6.30;;;;;;;40.32;21.90;100719.31;5049590;28;20104;-73
2022/07/08 03:41:47;;;;;;;7.30;5.85;;;;;;;40.45;21.48;100737.06;5033563;28;20029;-74
2022/07/08 03:44:12;;;;;;;6.55;5.95;;;;;;;40.54;21.32;100729.97;5032068;28;20052;-74
2022/07/08 03:46:37;;;;;;;6.68;5.95;;;;;;;40.62;21.34;100737.75;5033641;28;20033;-74
2022/07/08 03:49:03;;;;;;;7.25;5.68;;;;;;;40.37;21.38;100735.94;5048857;28;20075;-74
2022/07/08 03:51:28;;;;;;;6.85;5.97;;;;;;;40.51;21.73;100760.44;5033401;28;20492;-74
2022/07/08 03:53:54;;;;;;;8.48;6.50;;;;;;;40.51;21.85;100755.22;5033321;28;20022;-74
2022/07/08 03:56:19;;;;;;;7.53;5.45;;;;;;;40.31;21.69;100742.44;5033472;28;20009;-74
2022/07/08 03:58:44;;;;;;;7.57;5.88;;;;;;;40.42;21.49;100756.34;5033516;28;20482;-74
2022/07/08 04:01:10;;;;;;;6.80;6.07;;;;;;;40.20;21.85;100754.66;5033394;28;20092;-74
2022/07/08 04:03:36;;;;;;;6.50;5.85;;;;;;;40.23;21.66;100753.28;5033152;28;20557;-74
2022/07/08 04:06:20;;;;;;;6.53;5.40;;;;;;;40.38;21.33;100767.38;5033357;28;20025;-74
2022/07/08 04:08:46;;;;;;;5.20;4.70;;;;;;;40.43;21.42;100766.84;5033182;28;20553;-74
2022/07/08 04:11:11;;;;;;;5.10;4.60;;;;;;;40.42;21.46;100752.59;5033122;28;20030;-74
2022/07/08 04:13:46;;;;;;;5.45;4.95;;;;;;;40.46;21.93;100776.66;5031728;28;20549;-74
2022/07/08 04:16:13;;;;;;;7.32;5.57;;;;;;;40.42;21.74;100780.25;5032017;28;20021;-75
2022/07/08 04:18:41;;;;;;;7.10;5.57;;;;;;;40.28;22.15;100778.88;5034475;28;20374;-75
2022/07/08 04:21:08;;;;;;;5.90;4.90;;;;;;;40.30;22.04;100788.72;5035254;28;20107;-75
2022/07/08 04:23:35;;;;;;;5.10;4.60;;;;;;;40.08;22.25;100785.50;5035326;28;20112;-74
2022/07/08 04:26:01;;;;;;;5.53;5.00;;;;;;;40.22;21.89;100790.56;5051895;28;20048;-74
2022/07/08 04:28:28;;;;;;;7.43;4.80;;;;;;;40.14;22.09;100796.94;5051805;28;20036;-75
2022/07/08 04:30:55;;;;;;;5.30;4.50;;;;;;;39.99;22.10;100795.53;5051712;28;20025;-74
2022/07/08 04:33:22;;;;;;;5.05;4.55;;;;;;;39.99;22.14;100795.53;5035101;28;20036;-74
2022/07/08 04:35:47;;;;;;;5.35;3.90;;;;;;;39.87;22.21;100797.97;5052867;28;20100;-75
2022/07/08 04:38:14;;;;;;;4.63;4.00;;;;;;;39.78;22.41;100811.00;5034907;28;20056;-74
2022/07/08 04:40:42;;;;;;;5.40;4.35;;;;;;;39.59;22.59;100802.66;5051519;28;20033;-74
2022/07/08 04:43:09;;;;;;;5.07;4.35;;;;;;;39.51;22.65;100812.00;5053504;28;20021;-74
2022/07/08 04:45:34;;;;;;;4.70;3.85;;;;;;;39.72;22.47;100814.44;5056263;28;20037;-74
2022/07/08 04:48:02;;;;;;;6.28;4.28;;;;;;;39.77;22.20;100815.44;5038687;28;20115;-74
2022/07/08 04:50:28;;;;;;;5.43;3.97;;;;;;;39.83;22.37;100811.97;5038631;28;20025;-74
2022/07/08 04:52:55;;;;;;;4.95;4.18;;;;;;;39.88;22.06;100817.44;5038432;28;20013;-74
2022/07/08 04:55:31;;;;;;;4.75;4.15;;;;;;;39.87;21.71;100824.06;5055391;28;20539;-75
2022/07/08 04:58:01;;;;;;;4.97;3.60;;;;;;;39.85;21.90;100818.03;5056289;28;20025;-74
2022/07/08 05:00:28;;;;;;;6.93;3.47;;;;;;;40.05;21.54;100828.66;5056399;28;20042;-75
2022/07/08 05:02:53;;;;;;;5.75;4.30;;;;;;;40.12;21.48;100820.72;5055345;28;20021;-75
2022/07/08 05:05:21;;;;;;;5.20;3.60;;;;;;;40.05;21.66;100840.59;5055088;28;20025;-76
2022/07/08 05:07:48;;;;;;;5.82;3.78;;;;;;;40.20;21.08;100845.03;5022144;28;20508;-76
2022/07/08 05:10:18;;;;;;;6.07;3.78;;;;;;;40.24;21.21;100844.41;5021882;28;20475;-76
2022/07/08 05:12:45;;;;;;;5.70;4.70;;;;;;;40.06;21.63;100844.38;5056237;28;20059;-76
2022/07/08 05:15:12;;;;;;;6.68;5.25;;;;;;;40.03;21.39;100842.72;5021659;28;20029;-74
2022/07/08 05:17:38;;;;;;;6.55;3.58;;;;;;;39.93;21.44;100848.22;5021646;28;20024;-73
2022/07/08 05:20:07;;;;;;;3.97;3.47;;;;;;;40.16;21.15;100850.78;5031083;28;20040;-78
2022/07/08 05:22:32;;;;;;;7.00;4.53;;;;;;;40.18;20.86;100847.88;5081980;28;20016;-74
2022/07/08 05:24:58;;;;;;;7.78;3.38;;;;;;;40.26;21.07;100850.50;5054438;28;20025;-74
2022/07/08 05:27:25;;;;;;;6.28;4.80;;;;;;;40.42;20.70;100854.16;5054019;28;20017;-77
2022/07/08 05:29:50;;;;;;;3.92;3.53;;;;;;;40.45;20.58;100858.78;5054559;28;20104;-77
2022/07/08 05:32:16;;;;;;;6.45;3.72;;;;;;;40.29;20.96;100858.09;5038166;28;20175;-72
2022/07/08 05:34:44;;;;;;;7.28;3.38;;;;;;;40.37;20.89;100850.22;5053948;28;20448;-74
2022/07/08 05:37:12;;;;;;;5.97;3.53;;;;;;;40.46;21.14;100855.09;5054354;28;20025;-75
2022/07/08 05:39:42;;;;;;;8.23;4.28;;;;;;;40.20;21.17;100865.16;5037674;28;20048;-75
2022/07/08 05:42:09;;;;;;;6.38;4.50;;;;;;;40.37;21.43;100862.19;5054016;28;20037;-76
2022/07/08 05:44:37;;;;;;;9.10;3.42;;;;;;;40.32;20.87;100872.41;5053678;28;20045;-75
2022/07/08 05:47:05;;;;;;;10.35;4.60;;;;;;;40.71;20.58;100868.13;5019096;28;20120;-75
2022/07/08 05:49:32;;;;;;;4.88;3.40;;;;;;;40.74;20.47;100875.75;5035650;28;20194;-76
2022/07/08 05:52:05;;;;;;;12.70;6.65;;;;;;;40.39;21.24;100879.44;5035415;28;20105;-77
2022/07/08 05:54:32;;;;;;;8.23;4.13;;;;;;;39.80;22.16;100896.88;5035063;28;20529;-76
2022/07/08 05:56:59;;;;;;;9.98;4.25;;;;;;;40.03;22.12;100890.50;5034552;28;20028;-75
2022/07/08 05:59:27;;;;;;;15.70;4.82;;;;;;;39.98;21.76;100894.75;5051569;28;20043;-76
2022/07/08 06:01:52;;;;;;;6.70;4.65;;;;;;;39.91;22.03;100902.66;5036712;28;20157;-76
2022/07/08 06:04:18;;;;;;;13.73;5.03;;;;;;;39.56;22.57;100909.19;5035573;28;20107;-75
2022/07/08 06:06:43;;;;;;;10.98;4.68;;;;;;;39.26;22.45;100892.78;5048129;28;20027;-73
2022/07/08 06:09:09;;;;;;;14.63;5.03;;;;;;;39.45;22.98;100909.38;5034437;28;20037;-78
2022/07/08 06:11:34;;;;;;;24.27;7.38;;;;;;;39.61;22.49;100913.91;5031975;28;20021;-78
2022/07/08 06:13:59;;;;;;;14.13;5.05;;;;;;;39.50;22.37;100920.06;5035177;28;20059;-74
2022/07/08 06:16:25;;;;;;;13.45;6.00;;;;;;;39.66;22.04;100918.63;5036715;28;20044;-78
2022/07/08 06:18:51;;;;;;;16.77;6.30;;;;;;;39.77;22.14;100913.91;5053524;28;20029;-79
2022/07/08 06:21:16;;;;;;;11.35;5.03;;;;;;;39.98;21.80;100913.44;5037005;28;20033;-78
2022/07/08 06:23:42;;;;;;;9.48;4.45;;;;;;;39.92;22.26;100907.16;5052573;28;20115;-80
2022/07/08 06:26:07;;;;;;;8.18;3.88;;;;;;;39.67;21.92;100920.16;5036779;28;20033;-82
2022/07/08 06:28:32;;;;;;;12.13;6.13;;;;;;;39.24;22.63;100914.34;5036449;28;20043;-82
2022/07/08 06:30:59;;;;;;;18.42;4.50;;;;;;;38.79;23.03;100910.53;5052267;28;20021;-81
2022/07/08 06:33:26;;;;;;;7.88;4.35;;;;;;;39.07;22.77;100917.97;5032591;28;20474;-81
2022/07/08 06:35:51;;;;;;;6.85;4.10;;;;;;;39.28;22.55;100923.47;5033565;28;20024;-79
2022/07/08 06:38:16;;;;;;;12.35;4.22;;;;;;;39.61;21.82;100928.84;5033280;28;20025;-79
2022/07/08 06:40:42;;;;;;;14.70;5.93;;;;;;;39.77;21.98;100928.09;5033361;28;20022;-79
2022/07/08 06:43:07;;;;;;;13.27;3.80;;;;;;;39.93;21.63;100917.66;5038319;28;20029;-78
2022/07/08 06:45:33;;;;;;;11.55;4.38;;;;;;;39.98;21.82;100928.34;5049719;28;20491;-82
2022/07/08 06:47:59;;;;;;;8.52;4.10;;;;;;;39.86;21.52;100948.69;4999444;28;20029;-79
2022/07/08 06:50:25;;;;;;;13.40;4.00;;;;;;;39.83;21.65;100938.09;5033176;28;20021;-79
2022/07/08 06:52:50;;;;;;;6.53;3.90;;;;;;;40.07;21.62;100915.31;5016204;28;20509;-80
2022/07/08 06:55:15;;;;;;;6.78;3.85;;;;;;;40.38;21.56;100923.47;5016418;28;20032;-83
2022/07/08 06:57:42;;;;;;;8.60;5.57;;;;;;;40.80;20.65;100917.84;5016246;28;20022;-78
2022/07/08 07:00:08;;;;;;;12.05;4.50;;;;;;;40.85;20.79;100935.25;5016330;28;20118;-80
2022/07/08 07:02:34;;;;;;;12.20;4.45;;;;;;;41.14;20.44;100943.25;5034278;28;20409;-80
2022/07/08 07:05:00;;;;;;;10.63;4.30;;;;;;;41.33;20.46;100938.78;5033862;28;20028;-81
2022/07/08 07:07:27;;;;;;;9.85;4.63;;;;;;;41.78;19.96;100933.16;5032043;28;20025;-90
2022/07/08 07:09:53;;;;;;;9.50;3.70;;;;;;;41.73;19.91;100934.44;5034137;28;20494;-79
2022/07/08 07:12:18;;;;;;;8.45;3.92;;;;;;;41.17;19.74;100935.13;5032125;28;20553;-87
2022/07/08 07:14:45;;;;;;;7.50;3.53;;;;;;;41.44;19.67;100933.97;5033315;28;20047;-86
2022/07/08 07:17:11;;;;;;;11.60;3.92;;;;;;;41.40;19.64;100944.31;5057979;28;20021;-88
2022/07/08 07:19:36;;;;;;;16.92;6.40;;;;;;;40.39;20.33;100945.16;5036143;28;20090;-79
2022/07/08 07:22:02;;;;;;;12.45;4.88;;;;;;;40.71;20.32;100930.88;5052285;28;20029;-81
2022/07/08 07:24:28;;;;;;;12.68;5.63;;;;;;;41.35;19.87;100944.84;5053877;28;20055;-80
2022/07/08 07:26:53;;;;;;;11.25;4.38;;;;;;;41.24;19.40;100945.88;5052467;28;20040;-80
2022/07/08 07:29:19;;;;;;;10.80;4.53;;;;;;;40.34;20.29;100938.25;5035813;28;20075;-86
2022/07/08 07:31:45;;;;;;;8.25;4.13;;;;;;;40.12;20.27;100958.09;5036967;28;20078;-82
2022/07/08 07:34:11;;;;;;;7.10;4.00;;;;;;;40.09;20.81;100956.47;5036127;28;20411;-78
2022/07/08 07:36:37;;;;;;;7.63;4.35;;;;;;;40.12;20.47;100961.84;5035423;28;20036;-78
2022/07/08 07:39:03;;;;;;;8.35;4.60;;;;;;;40.50;20.15;100974.81;5035864;28;20479;-82
2022/07/08 07:41:29;;;;;;;11.90;4.30;;;;;;;40.40;20.14;100949.69;5036154;28;20025;-78
2022/07/08 07:43:54;;;;;;;14.40;4.90;;;;;;;40.63;20.33;100981.34;5054054;28;20017;-82
2022/07/08 07:46:20;;;;;;;10.50;5.00;;;;;;;40.24;20.24;100978.81;5035120;28;20470;-77
2022/07/08 07:48:45;;;;;;;11.15;4.45;;;;;;;40.09;20.60;100998.28;5051567;28;20335;-77
2022/07/08 07:51:11;;;;;;;12.43;6.45;;;;;;;40.02;20.46;100985.25;5051857;28;20493;-77
2022/07/08 07:53:36;;;;;;;11.15;5.72;;;;;;;40.68;20.04;100983.84;5052192;28;20032;-76
2022/07/08 07:56:02;;;;;;;9.52;3.97;;;;;;;41.34;18.99;100973.25;5053058;28;20021;-82
2022/07/08 07:58:28;;;;;;;8.95;4.05;;;;;;;41.70;18.86;100979.94;5052131;28;20086;-87
2022/07/08 08:00:53;;;;;;;14.32;4.55;;;;;;;41.60;18.49;100973.53;5035409;28;20146;-79
2022/07/08 08:03:19;;;;;;;8.98;4.18;;;;;;;41.48;18.97;100976.06;5052905;28;20017;-77
2022/07/08 08:05:45;;;;;;;8.10;5.32;;;;;;;41.50;18.78;100982.13;5034675;28;20049;-78
2022/07/08 08:08:10;;;;;;;7.97;4.20;;;;;;;41.24;19.13;100993.75;5034443;28;20021;-77
2022/07/08 08:10:36;;;;;;;9.95;4.03;;;;;;;41.13;19.24;100979.81;5051823;28;20515;-78
2022/07/08 08:13:01;;;;;;;6.22;3.88;;;;;;;41.04;19.05;100992.91;5051417;28;20033;-81
2022/07/08 08:15:29;;;;;;;11.30;4.93;;;;;;;40.70;19.23;100989.94;5034961;28;20108;-78
2022/07/08 08:17:56;;;;;;;13.88;5.07;;;;;;;40.81;19.48;101006.84;5052200;28;20031;-77
2022/07/08 08:20:24;;;;;;;10.70;3.53;;;;;;;40.91;19.28;100994.53;5038278;28;20021;-79
2022/07/08 08:22:50;;;;;;;9.13;4.40;;;;;;;41.19;19.07;101004.78;5038334;28;20025;-84
2022/07/08 08:25:18;;;;;;;8.85;4.10;;;;;;;40.90;18.80;100916.03;5054406;28;20037;-82
2022/07/08 08:27:46;;;;;;;10.98;4.13;;;;;;;41.60;18.38;100979.53;5038698;28;20024;-79
2022/07/08 08:30:12;;;;;;;6.57;3.80;;;;;;;42.03;18.46;100997.78;5054618;28;20075;-77
2022/07/08 08:32:38;;;;;;;22.83;13.93;;;;;;;42.61;18.26;100993.22;5021052;28;20500;-77
2022/07/08 08:35:05;;;;;;;12.23;5.68;;;;;;;43.24;17.28;100977.47;5038420;28;20024;-77
2022/07/08 08:37:30;;;;;;;19.92;4.93;;;;;;;44.36;16.65;100987.03;5038737;28;20021;-79
2022/07/08 08:40:03;;;;;;;7.05;2.72;;;;;;;45.14;16.08;100983.19;5055341;28;20070;-78
2022/07/08 08:42:31;;;;;;;8.55;2.97;;;;;;;44.97;15.69;100972.19;5055490;28;20020;-78
2022/07/08 08:44:58;;;;;;;4.55;2.72;;;;;;;44.61;15.03;100980.19;5038435;28;20090;-78
2022/07/08 08:47:27;;;;;;;7.35;2.70;;;;;;;44.15;15.45;100983.38;5054513;28;20025;-79
2022/07/08 08:49:55;;;;;;;4.40;2.58;;;;;;;44.35;15.71;100974.22;5055318;28;20047;-79
2022/07/08 08:52:22;;;;;;;3.65;2.17;;;;;;;44.24;15.62;100984.38;5038775;28;20135;-77
2022/07/08 08:54:49;;;;;;;4.00;2.45;;;;;;;44.13;15.54;100995.34;5037987;28;20047;-82
2022/07/08 08:57:15;;;;;;;6.63;2.70;;;;;;;44.19;15.74;100952.69;5056201;28;20029;-83
2022/07/08 08:59:41;;;;;;;6.95;2.40;;;;;;;44.68;14.84;100981.94;5054971;28;20371;-84
2022/07/08 09:02:08;;;;;;;5.95;2.47;;;;;;;45.14;14.94;100977.16;5054847;28;20162;-77
2022/07/08 09:04:36;;;;;;;4.60;2.25;;;;;;;45.73;14.65;100984.63;5038057;28;20016;-77
2022/07/08 09:07:02;;;;;;;6.20;3.00;;;;;;;46.19;14.09;100984.91;5038045;28;20032;-79
2022/07/08 09:09:28;;;;;;;4.03;2.22;;;;;;;46.62;14.48;100968.47;5054673;28;20032;-81
2022/07/08 09:11:53;;;;;;;10.07;2.40;;;;;;;46.88;14.16;100976.47;5054386;28;20358;-81
2022/07/08 09:14:20;;;;;;;10.00;2.55;;;;;;;46.31;14.01;100979.16;5054212;28;20032;-82
2022/07/08 09:17:16;;;;;;;8.18;3.30;;;;;;;46.56;13.58;100973.63;5038390;28;20117;-82
2022/07/08 09:19:43;;;;;;;5.88;2.85;;;;;;;46.63;14.40;100966.97;5038298;28;20028;-77
2022/07/08 09:22:09;;;;;;;4.60;1.98;;;;;;;47.39;13.42;100966.81;5037781;28;20500;-78
2022/07/08 09:24:35;;;;;;;10.45;2.92;;;;;;;47.91;13.29;100969.84;5037748;28;20052;-79
2022/07/08 09:27:08;;;;;;;6.97;2.10;;;;;;;47.81;13.98;100969.75;5054313;28;20377;-78
2022/07/08 09:29:34;;;;;;;3.95;2.30;;;;;;;47.71;13.40;100962.78;5036513;28;20064;-76
2022/07/08 09:32:10;;;;;;;4.25;2.30;;;;;;;47.14;13.33;100959.59;5055288;28;20059;-79
2022/07/08 09:34:36;;;;;;;7.32;2.22;;;;;;;47.75;13.42;100954.53;5052955;28;20051;-78
2022/07/08 09:37:14;;;;;;;5.20;3.50;;;;;;;47.36;13.58;100958.47;5054411;28;20021;-78
2022/07/08 09:39:40;;;;;;;6.38;2.30;;;;;;;47.91;13.31;100944.94;5037065;28;20024;-78
2022/07/08 09:42:07;;;;;;;6.55;2.22;;;;;;;47.86;12.42;100961.50;5054082;28;20031;-78
2022/07/08 09:44:32;;;;;;;5.43;1.63;;;;;;;48.22;12.17;100958.16;5053704;28;20052;-78
2022/07/08 09:46:58;;;;;;;6.50;2.80;;;;;;;48.23;11.69;100929.47;5037381;28;20021;-78
2022/07/08 09:49:31;;;;;;;10.52;2.25;;;;;;;48.52;12.01;100954.75;5038049;28;20023;-79
2022/07/08 09:51:57;;;;;;;5.25;1.88;;;;;;;48.21;12.14;100957.41;5037545;28;20033;-80
2022/07/08 09:54:23;;;;;;;4.47;1.63;;;;;;;48.40;12.20;100956.16;5037578;28;20466;-78
2022/07/08 09:57:06;;;;;;;7.43;1.83;;;;;;;48.41;11.22;100954.66;5037144;28;20028;-77
2022/07/08 09:59:32;;;;;;;3.30;1.77;;;;;;;48.22;12.43;100958.94;5037238;28;20112;-78
2022/07/08 10:01:58;;;;;;;7.43;3.70;;;;;;;48.17;12.07;100945.25;5052844;28;20033;-79
2022/07/08 10:04:24;;;;;;;6.43;2.20;;;;;;;48.23;12.81;100953.66;5036947;28;20024;-78
2022/07/08 10:06:54;;;;;;;7.32;1.85;;;;;;;48.31;12.17;100956.75;5037105;28;20033;-78
2022/07/08 10:09:21;;;;;;;8.52;2.15;;;;;;;48.13;12.20;100953.53;5037286;28;20036;-80
2022/07/08 10:11:48;;;;;;;6.03;2.03;;;;;;;48.32;12.17;100946.19;5037238;28;20071;-78
2022/07/08 10:14:13;;;;;;;7.63;1.65;;;;;;;48.01;12.60;100967.00;5053905;28;20016;-78
2022/07/08 10:16:40;;;;;;;3.72;1.88;;;;;;;47.39;11.97;100948.69;5053966;28;20029;-79
2022/07/08 10:19:13;;;;;;;6.97;2.00;;;;;;;47.15;12.36;100969.44;5053251;28;20044;-78
2022/07/08 10:21:40;;;;;;;8.60;2.13;;;;;;;46.81;12.29;100975.59;5052934;28;20025;-82
2022/07/08 10:24:08;;;;;;;4.05;1.80;;;;;;;47.11;12.97;100979.19;5052782;28;20025;-78
2022/07/08 10:26:38;;;;;;;14.80;2.53;;;;;;;46.86;12.69;100980.22;5053281;28;20013;-76
2022/07/08 10:29:08;;;;;;;7.05;2.22;;;;;;;46.83;13.23;100981.66;5053287;28;20028;-77
2022/07/08 10:31:41;;;;;;;7.47;2.53;;;;;;;47.26;12.38;100976.41;5053372;28;20025;-76
2022/07/08 10:34:07;;;;;;;4.03;1.85;;;;;;;46.72;13.27;100983.75;5054359;28;20253;-74
2022/07/08 10:36:50;;;;;;;8.27;1.92;;;;;;;46.46;13.01;100970.38;5036543;28;20017;-74
2022/07/08 10:39:37;;;;;;;13.25;2.22;;;;;;;46.14;13.72;100970.44;5052984;28;20120;-76
2022/07/08 10:42:05;;;;;;;5.93;1.92;;;;;;;45.60;13.50;100973.75;5052730;28;20495;-76
2022/07/08 10:44:43;;;;;;;6.05;1.63;;;;;;;45.43;13.57;100971.88;5036075;28;20033;-76
2022/07/08 10:47:12;;;;;;;7.30;1.75;;;;;;;45.35;14.22;100965.59;5052922;28;20025;-76
2022/07/08 10:49:42;;;;;;;15.60;5.82;;;;;;;45.14;14.89;100964.38;5032615;28;20026;-75
2022/07/08 10:52:07;;;;;;;15.15;8.20;;;;;;;45.45;13.57;100975.69;5032875;28;20029;-76
2022/07/08 10:54:38;;;;;;;5.88;2.30;;;;;;;46.01;13.63;100962.66;5032695;28;20025;-74
2022/07/08 10:57:15;;;;;;;3.20;1.33;;;;;;;46.31;12.91;100958.03;5034308;28;20036;-74
2022/07/08 10:59:40;;;;;;;5.35;2.72;;;;;;;45.86;12.68;100956.31;5066027;28;20087;-77
2022/07/08 11:02:09;;;;;;;6.28;1.73;;;;;;;44.37;13.54;100968.25;5032748;28;20021;-75
2022/07/08 11:04:37;;;;;;;6.07;1.60;;;;;;;45.18;13.75;100975.72;5049088;28;20051;-75
2022/07/08 11:07:26;;;;;;;6.18;1.58;;;;;;;44.47;14.18;100983.56;5049152;28;20036;-76
2022/07/08 11:10:01;;;;;;;4.22;1.67;;;;;;;44.76;13.83;100982.13;5059574;28;20037;-77
2022/07/08 11:12:29;;;;;;;2.85;1.20;;;;;;;44.42;13.79;100975.16;5049234;28;20501;-76
2022/07/08 11:14:57;;;;;;;4.57;1.73;;;;;;;44.40;13.81;100969.88;5049273;28;20041;-76
2022/07/08 11:17:31;;;;;;;3.72;1.60;;;;;;;44.57;14.18;100980.84;5032485;28;20076;-76
2022/07/08 11:20:00;;;;;;;6.55;1.90;;;;;;;44.33;14.16;100991.41;5065993;28;20502;-78
2022/07/08 11:22:26;;;;;;;3.25;1.40;;;;;;;43.32;15.19;100985.97;5032473;28;20041;-77
2022/07/08 11:24:54;;;;;;;7.00;2.00;;;;;;;43.65;14.76;100993.81;5032368;28;20104;-74
2022/07/08 11:27:28;;;;;;;3.55;1.55;;;;;;;43.85;14.69;100992.22;5033442;28;20079;-79